sensor_id;sensor_type;location;lat;lon;timestamp;temperature;humidity
35497;DHT22;21609;49.298;6.844;2023-07-30T00:00:41;22.50;66.80
35497;DHT22;21609;49.298;6.844;2023-07-30T00:03:07;22.50;66.70
35497;DHT22;21609;49.298;6.844;2023-07-30T00:05:32;22.50;67.00
35497;DHT22;21609;49.298;6.844;2023-07-30T00:07:57;22.50;66.90
35497;DHT22;21609;49.298;6.844;2023-07-30T00:10:23;22.50;66.90
35497;DHT22;21609;49.298;6.844;2023-07-30T00:12:49;22.50;67.00
35497;DHT22;21609;49.298;6.844;2023-07-30T00:15:14;22.50;66.90
35497;DHT22;21609;49.298;6.844;2023-07-30T00:17:40;22.50;66.80
35497;DHT22;21609;49.298;6.844;2023-07-30T00:20:06;22.50;67.00
35497;DHT22;21609;49.298;6.844;2023-07-30T00:22:32;22.50;66.80
35497;DHT22;21609;49.298;6.844;2023-07-30T00:24:57;22.50;66.80
35497;DHT22;21609;49.298;6.844;2023-07-30T00:27:25;22.50;66.90
35497;DHT22;21609;49.298;6.844;2023-07-30T00:29:51;22.50;67.00
35497;DHT22;21609;49.298;6.844;2023-07-30T00:32:16;22.50;67.00
35497;DHT22;21609;49.298;6.844;2023-07-30T00:34:42;22.50;67.30
35497;DHT22;21609;49.298;6.844;2023-07-30T00:37:08;22.50;67.00
35497;DHT22;21609;49.298;6.844;2023-07-30T00:39:33;22.50;67.10
35497;DHT22;21609;49.298;6.844;2023-07-30T00:41:58;22.50;66.70
35497;DHT22;21609;49.298;6.844;2023-07-30T00:44:24;22.50;67.00
35497;DHT22;21609;49.298;6.844;2023-07-30T00:46:52;22.40;66.80
35497;DHT22;21609;49.298;6.844;2023-07-30T00:49:17;22.50;66.70
35497;DHT22;21609;49.298;6.844;2023-07-30T00:51:43;22.50;66.80
35497;DHT22;21609;49.298;6.844;2023-07-30T00:54:11;22.50;66.90
35497;DHT22;21609;49.298;6.844;2023-07-30T00:56:36;22.40;66.90
35497;DHT22;21609;49.298;6.844;2023-07-30T00:59:02;22.50;66.70
35497;DHT22;21609;49.298;6.844;2023-07-30T01:01:27;22.40;66.60
35497;DHT22;21609;49.298;6.844;2023-07-30T01:03:53;22.40;66.80
35497;DHT22;21609;49.298;6.844;2023-07-30T01:06:19;22.40;66.80
35497;DHT22;21609;49.298;6.844;2023-07-30T01:08:46;22.40;66.80
35497;DHT22;21609;49.298;6.844;2023-07-30T01:11:11;22.40;66.80
35497;DHT22;21609;49.298;6.844;2023-07-30T01:13:37;22.40;66.90
35497;DHT22;21609;49.298;6.844;2023-07-30T01:16:03;22.40;66.80
35497;DHT22;21609;49.298;6.844;2023-07-30T01:18:29;22.40;66.80
35497;DHT22;21609;49.298;6.844;2023-07-30T01:20:57;22.40;66.50
35497;DHT22;21609;49.298;6.844;2023-07-30T01:23:24;22.40;66.70
35497;DHT22;21609;49.298;6.844;2023-07-30T01:25:49;22.40;66.80
35497;DHT22;21609;49.298;6.844;2023-07-30T01:28:20;22.40;67.00
35497;DHT22;21609;49.298;6.844;2023-07-30T01:30:46;22.40;66.80
35497;DHT22;21609;49.298;6.844;2023-07-30T01:33:21;22.40;67.00
35497;DHT22;21609;49.298;6.844;2023-07-30T01:35:48;22.40;66.90
35497;DHT22;21609;49.298;6.844;2023-07-30T01:38:13;22.40;66.80
35497;DHT22;21609;49.298;6.844;2023-07-30T01:40:39;22.40;66.90
35497;DHT22;21609;49.298;6.844;2023-07-30T01:43:04;22.40;66.70
35497;DHT22;21609;49.298;6.844;2023-07-30T01:45:30;22.40;66.70
35497;DHT22;21609;49.298;6.844;2023-07-30T01:47:55;22.40;66.60
35497;DHT22;21609;49.298;6.844;2023-07-30T01:50:21;22.40;66.80
35497;DHT22;21609;49.298;6.844;2023-07-30T01:52:46;22.40;67.00
35497;DHT22;21609;49.298;6.844;2023-07-30T01:55:12;22.40;66.60
35497;DHT22;21609;49.298;6.844;2023-07-30T01:57:38;22.40;66.80
35497;DHT22;21609;49.298;6.844;2023-07-30T02:00:03;22.40;66.60
35497;DHT22;21609;49.298;6.844;2023-07-30T02:02:29;22.40;66.50
35497;DHT22;21609;49.298;6.844;2023-07-30T02:04:54;22.40;66.60
35497;DHT22;21609;49.298;6.844;2023-07-30T02:07:20;22.40;66.50
35497;DHT22;21609;49.298;6.844;2023-07-30T02:09:45;22.30;66.50
35497;DHT22;21609;49.298;6.844;2023-07-30T02:12:11;22.30;66.80
35497;DHT22;21609;49.298;6.844;2023-07-30T02:14:36;22.30;66.80
35497;DHT22;21609;49.298;6.844;2023-07-30T02:17:02;22.30;66.70
35497;DHT22;21609;49.298;6.844;2023-07-30T02:19:27;22.30;66.50
35497;DHT22;21609;49.298;6.844;2023-07-30T02:21:53;22.30;66.50
35497;DHT22;21609;49.298;6.844;2023-07-30T02:24:18;22.30;66.50
35497;DHT22;21609;49.298;6.844;2023-07-30T02:26:43;22.30;66.80
35497;DHT22;21609;49.298;6.844;2023-07-30T02:29:09;22.30;66.80
35497;DHT22;21609;49.298;6.844;2023-07-30T02:31:34;22.30;66.60
35497;DHT22;21609;49.298;6.844;2023-07-30T02:34:00;22.30;66.80
35497;DHT22;21609;49.298;6.844;2023-07-30T02:36:25;22.30;66.90
35497;DHT22;21609;49.298;6.844;2023-07-30T02:38:51;22.30;66.70
35497;DHT22;21609;49.298;6.844;2023-07-30T02:41:16;22.30;66.40
35497;DHT22;21609;49.298;6.844;2023-07-30T02:43:42;22.30;66.50
35497;DHT22;21609;49.298;6.844;2023-07-30T02:46:08;22.30;66.80
35497;DHT22;21609;49.298;6.844;2023-07-30T02:48:33;22.30;66.60
35497;DHT22;21609;49.298;6.844;2023-07-30T02:50:58;22.30;67.20
35497;DHT22;21609;49.298;6.844;2023-07-30T02:53:24;22.30;66.50
35497;DHT22;21609;49.298;6.844;2023-07-30T02:55:49;22.30;66.50
35497;DHT22;21609;49.298;6.844;2023-07-30T02:58:15;22.30;66.40
35497;DHT22;21609;49.298;6.844;2023-07-30T03:00:40;22.30;66.50
35497;DHT22;21609;49.298;6.844;2023-07-30T03:03:06;22.30;66.80
35497;DHT22;21609;49.298;6.844;2023-07-30T03:05:31;22.30;66.80
35497;DHT22;21609;49.298;6.844;2023-07-30T03:07:56;22.30;66.70
35497;DHT22;21609;49.298;6.844;2023-07-30T03:10:22;22.30;66.50
35497;DHT22;21609;49.298;6.844;2023-07-30T03:12:47;22.30;66.70
35497;DHT22;21609;49.298;6.844;2023-07-30T03:15:13;22.30;66.50
35497;DHT22;21609;49.298;6.844;2023-07-30T03:17:38;22.30;66.80
35497;DHT22;21609;49.298;6.844;2023-07-30T03:20:04;22.30;66.90
35497;DHT22;21609;49.298;6.844;2023-07-30T03:22:29;22.20;66.90
35497;DHT22;21609;49.298;6.844;2023-07-30T03:24:55;22.30;66.70
35497;DHT22;21609;49.298;6.844;2023-07-30T03:27:20;22.20;66.40
35497;DHT22;21609;49.298;6.844;2023-07-30T03:29:46;22.30;66.80
35497;DHT22;21609;49.298;6.844;2023-07-30T03:32:11;22.30;66.80
35497;DHT22;21609;49.298;6.844;2023-07-30T03:34:37;22.20;66.50
35497;DHT22;21609;49.298;6.844;2023-07-30T03:37:02;22.30;66.80
35497;DHT22;21609;49.298;6.844;2023-07-30T03:39:28;22.20;66.60
35497;DHT22;21609;49.298;6.844;2023-07-30T03:41:53;22.20;66.60
35497;DHT22;21609;49.298;6.844;2023-07-30T03:44:18;22.20;67.00
35497;DHT22;21609;49.298;6.844;2023-07-30T03:46:44;22.20;66.60
35497;DHT22;21609;49.298;6.844;2023-07-30T03:49:09;22.20;67.00
35497;DHT22;21609;49.298;6.844;2023-07-30T03:51:35;22.20;66.60
35497;DHT22;21609;49.298;6.844;2023-07-30T03:54:01;22.20;66.80
35497;DHT22;21609;49.298;6.844;2023-07-30T03:56:26;22.20;66.80
35497;DHT22;21609;49.298;6.844;2023-07-30T03:58:52;22.20;66.50
35497;DHT22;21609;49.298;6.844;2023-07-30T04:01:17;22.20;66.90
35497;DHT22;21609;49.298;6.844;2023-07-30T04:03:43;22.20;66.80
35497;DHT22;21609;49.298;6.844;2023-07-30T04:06:08;22.20;66.90
35497;DHT22;21609;49.298;6.844;2023-07-30T04:08:33;22.20;66.70
35497;DHT22;21609;49.298;6.844;2023-07-30T04:10:59;22.20;66.80
35497;DHT22;21609;49.298;6.844;2023-07-30T04:13:24;22.20;66.60
35497;DHT22;21609;49.298;6.844;2023-07-30T04:15:50;22.20;66.80
35497;DHT22;21609;49.298;6.844;2023-07-30T04:18:16;22.20;66.50
35497;DHT22;21609;49.298;6.844;2023-07-30T04:20:41;22.20;66.80
35497;DHT22;21609;49.298;6.844;2023-07-30T04:23:06;22.20;66.80
35497;DHT22;21609;49.298;6.844;2023-07-30T04:25:32;22.20;66.80
35497;DHT22;21609;49.298;6.844;2023-07-30T04:27:57;22.20;66.50
35497;DHT22;21609;49.298;6.844;2023-07-30T04:30:23;22.20;66.90
35497;DHT22;21609;49.298;6.844;2023-07-30T04:32:48;22.20;66.90
35497;DHT22;21609;49.298;6.844;2023-07-30T04:35:14;22.20;66.90
35497;DHT22;21609;49.298;6.844;2023-07-30T04:37:39;22.20;66.60
35497;DHT22;21609;49.298;6.844;2023-07-30T04:40:05;22.20;66.60
35497;DHT22;21609;49.298;6.844;2023-07-30T04:42:30;22.20;66.80
35497;DHT22;21609;49.298;6.844;2023-07-30T04:44:56;22.20;66.70
35497;DHT22;21609;49.298;6.844;2023-07-30T04:47:21;22.20;66.60
35497;DHT22;21609;49.298;6.844;2023-07-30T04:49:47;22.10;66.70
35497;DHT22;21609;49.298;6.844;2023-07-30T04:52:12;22.20;66.50
35497;DHT22;21609;49.298;6.844;2023-07-30T04:54:38;22.20;66.60
35497;DHT22;21609;49.298;6.844;2023-07-30T04:57:03;22.20;66.50
35497;DHT22;21609;49.298;6.844;2023-07-30T04:59:29;22.20;66.80
35497;DHT22;21609;49.298;6.844;2023-07-30T05:01:55;22.20;67.10
35497;DHT22;21609;49.298;6.844;2023-07-30T05:04:20;22.20;66.90
35497;DHT22;21609;49.298;6.844;2023-07-30T05:06:45;22.20;66.80
35497;DHT22;21609;49.298;6.844;2023-07-30T05:09:11;22.20;66.90
35497;DHT22;21609;49.298;6.844;2023-07-30T05:11:39;22.20;66.60
35497;DHT22;21609;49.298;6.844;2023-07-30T05:14:05;22.20;66.30
35497;DHT22;21609;49.298;6.844;2023-07-30T05:16:30;22.10;66.90
35497;DHT22;21609;49.298;6.844;2023-07-30T05:18:55;22.20;67.50
35497;DHT22;21609;49.298;6.844;2023-07-30T05:21:21;22.20;67.50
35497;DHT22;21609;49.298;6.844;2023-07-30T05:23:46;22.20;67.10
35497;DHT22;21609;49.298;6.844;2023-07-30T05:26:12;22.20;67.20
35497;DHT22;21609;49.298;6.844;2023-07-30T05:28:37;22.20;66.70
35497;DHT22;21609;49.298;6.844;2023-07-30T05:31:03;22.20;67.60
35497;DHT22;21609;49.298;6.844;2023-07-30T05:33:28;22.20;67.70
35497;DHT22;21609;49.298;6.844;2023-07-30T05:35:54;22.20;67.20
35497;DHT22;21609;49.298;6.844;2023-07-30T05:38:20;22.20;67.60
35497;DHT22;21609;49.298;6.844;2023-07-30T05:40:45;22.20;67.40
35497;DHT22;21609;49.298;6.844;2023-07-30T05:43:11;22.20;67.50
35497;DHT22;21609;49.298;6.844;2023-07-30T05:45:36;22.20;67.80
35497;DHT22;21609;49.298;6.844;2023-07-30T05:48:02;22.20;67.80
35497;DHT22;21609;49.298;6.844;2023-07-30T05:50:27;22.20;67.80
35497;DHT22;21609;49.298;6.844;2023-07-30T05:52:53;22.20;67.90
35497;DHT22;21609;49.298;6.844;2023-07-30T05:55:18;22.20;67.70
35497;DHT22;21609;49.298;6.844;2023-07-30T05:57:44;22.20;68.60
35497;DHT22;21609;49.298;6.844;2023-07-30T06:00:09;22.20;67.50
35497;DHT22;21609;49.298;6.844;2023-07-30T06:02:35;22.20;67.00
35497;DHT22;21609;49.298;6.844;2023-07-30T06:05:00;22.20;67.50
35497;DHT22;21609;49.298;6.844;2023-07-30T06:07:26;22.20;67.20
35497;DHT22;21609;49.298;6.844;2023-07-30T06:09:51;22.20;67.40
35497;DHT22;21609;49.298;6.844;2023-07-30T06:12:17;22.20;67.40
35497;DHT22;21609;49.298;6.844;2023-07-30T06:14:42;22.20;67.50
35497;DHT22;21609;49.298;6.844;2023-07-30T06:17:08;22.20;67.40
35497;DHT22;21609;49.298;6.844;2023-07-30T06:19:34;22.20;67.20
35497;DHT22;21609;49.298;6.844;2023-07-30T06:21:59;22.20;66.90
35497;DHT22;21609;49.298;6.844;2023-07-30T06:24:25;22.20;67.10
35497;DHT22;21609;49.298;6.844;2023-07-30T06:26:50;22.20;67.20
35497;DHT22;21609;49.298;6.844;2023-07-30T06:29:16;22.20;67.40
35497;DHT22;21609;49.298;6.844;2023-07-30T06:31:41;22.20;67.30
35497;DHT22;21609;49.298;6.844;2023-07-30T06:34:07;22.20;67.20
35497;DHT22;21609;49.298;6.844;2023-07-30T06:36:32;22.20;67.20
35497;DHT22;21609;49.298;6.844;2023-07-30T06:38:58;22.20;67.40
35497;DHT22;21609;49.298;6.844;2023-07-30T06:41:23;22.30;67.30
35497;DHT22;21609;49.298;6.844;2023-07-30T06:43:48;22.30;67.80
35497;DHT22;21609;49.298;6.844;2023-07-30T06:46:14;22.30;68.00
35497;DHT22;21609;49.298;6.844;2023-07-30T06:48:39;22.30;68.00
35497;DHT22;21609;49.298;6.844;2023-07-30T06:51:06;22.30;68.10
35497;DHT22;21609;49.298;6.844;2023-07-30T06:53:31;22.30;68.10
35497;DHT22;21609;49.298;6.844;2023-07-30T06:55:57;22.30;68.20
35497;DHT22;21609;49.298;6.844;2023-07-30T06:58:22;22.30;68.60
35497;DHT22;21609;49.298;6.844;2023-07-30T07:00:48;22.30;68.30
35497;DHT22;21609;49.298;6.844;2023-07-30T07:03:13;22.30;68.50
35497;DHT22;21609;49.298;6.844;2023-07-30T07:05:38;22.30;68.50
35497;DHT22;21609;49.298;6.844;2023-07-30T07:08:04;22.30;68.50
35497;DHT22;21609;49.298;6.844;2023-07-30T07:10:29;22.30;68.50
35497;DHT22;21609;49.298;6.844;2023-07-30T07:12:55;22.30;68.60
35497;DHT22;21609;49.298;6.844;2023-07-30T07:15:20;22.30;68.70
35497;DHT22;21609;49.298;6.844;2023-07-30T07:17:45;22.30;68.70
35497;DHT22;21609;49.298;6.844;2023-07-30T07:20:11;22.40;69.00
35497;DHT22;21609;49.298;6.844;2023-07-30T07:22:36;22.40;68.90
35497;DHT22;21609;49.298;6.844;2023-07-30T07:25:02;22.40;68.80
35497;DHT22;21609;49.298;6.844;2023-07-30T07:27:28;22.40;69.40
35497;DHT22;21609;49.298;6.844;2023-07-30T07:29:53;22.40;69.00
35497;DHT22;21609;49.298;6.844;2023-07-30T07:32:19;22.40;69.40
35497;DHT22;21609;49.298;6.844;2023-07-30T07:34:48;22.40;68.90
35497;DHT22;21609;49.298;6.844;2023-07-30T07:37:14;22.50;67.90
35497;DHT22;21609;49.298;6.844;2023-07-30T07:39:43;22.50;66.80
35497;DHT22;21609;49.298;6.844;2023-07-30T07:42:09;22.50;66.60
35497;DHT22;21609;49.298;6.844;2023-07-30T07:44:34;22.60;66.50
35497;DHT22;21609;49.298;6.844;2023-07-30T07:47:00;22.60;66.00
35497;DHT22;21609;49.298;6.844;2023-07-30T07:49:25;22.60;66.20
35497;DHT22;21609;49.298;6.844;2023-07-30T07:51:50;22.60;66.70
35497;DHT22;21609;49.298;6.844;2023-07-30T07:54:16;22.60;67.20
35497;DHT22;21609;49.298;6.844;2023-07-30T07:56:41;22.60;67.30
35497;DHT22;21609;49.298;6.844;2023-07-30T07:59:07;22.60;66.60
35497;DHT22;21609;49.298;6.844;2023-07-30T08:01:32;22.60;66.80
35497;DHT22;21609;49.298;6.844;2023-07-30T08:03:58;22.60;67.60
35497;DHT22;21609;49.298;6.844;2023-07-30T08:06:23;22.60;67.50
35497;DHT22;21609;49.298;6.844;2023-07-30T08:08:49;22.70;65.80
35497;DHT22;21609;49.298;6.844;2023-07-30T08:11:14;22.70;68.10
35497;DHT22;21609;49.298;6.844;2023-07-30T08:13:40;22.70;68.30
35497;DHT22;21609;49.298;6.844;2023-07-30T08:16:06;22.70;67.70
35497;DHT22;21609;49.298;6.844;2023-07-30T08:18:31;22.70;67.70
35497;DHT22;21609;49.298;6.844;2023-07-30T08:20:57;22.70;68.50
35497;DHT22;21609;49.298;6.844;2023-07-30T08:23:22;22.70;67.50
35497;DHT22;21609;49.298;6.844;2023-07-30T08:25:49;22.70;68.00
35497;DHT22;21609;49.298;6.844;2023-07-30T08:28:15;22.70;68.50
35497;DHT22;21609;49.298;6.844;2023-07-30T08:30:40;22.70;68.20
35497;DHT22;21609;49.298;6.844;2023-07-30T08:33:06;22.70;68.90
35497;DHT22;21609;49.298;6.844;2023-07-30T08:35:31;22.70;68.30
35497;DHT22;21609;49.298;6.844;2023-07-30T08:37:57;22.70;68.40
35497;DHT22;21609;49.298;6.844;2023-07-30T08:40:22;22.70;68.30
35497;DHT22;21609;49.298;6.844;2023-07-30T08:42:51;22.70;69.00
35497;DHT22;21609;49.298;6.844;2023-07-30T08:45:17;22.80;65.70
35497;DHT22;21609;49.298;6.844;2023-07-30T08:47:42;22.80;67.10
35497;DHT22;21609;49.298;6.844;2023-07-30T08:50:08;22.70;67.30
35497;DHT22;21609;49.298;6.844;2023-07-30T08:52:34;22.70;67.00
35497;DHT22;21609;49.298;6.844;2023-07-30T08:55:00;22.70;67.00
35497;DHT22;21609;49.298;6.844;2023-07-30T08:57:27;22.70;67.50
35497;DHT22;21609;49.298;6.844;2023-07-30T08:59:54;22.80;66.20
35497;DHT22;21609;49.298;6.844;2023-07-30T09:02:38;22.80;66.80
35497;DHT22;21609;49.298;6.844;2023-07-30T09:05:03;22.70;66.60
35497;DHT22;21609;49.298;6.844;2023-07-30T09:07:29;22.70;66.50
35497;DHT22;21609;49.298;6.844;2023-07-30T09:09:55;22.70;66.60
35497;DHT22;21609;49.298;6.844;2023-07-30T09:12:25;22.80;66.80
35497;DHT22;21609;49.298;6.844;2023-07-30T09:14:50;22.80;64.90
35497;DHT22;21609;49.298;6.844;2023-07-30T09:17:16;22.80;65.40
35497;DHT22;21609;49.298;6.844;2023-07-30T09:19:42;22.80;66.40
35497;DHT22;21609;49.298;6.844;2023-07-30T09:22:08;22.80;66.20
35497;DHT22;21609;49.298;6.844;2023-07-30T09:24:34;22.80;65.30
35497;DHT22;21609;49.298;6.844;2023-07-30T09:27:02;22.80;66.00
35497;DHT22;21609;49.298;6.844;2023-07-30T09:29:28;22.80;65.20
35497;DHT22;21609;49.298;6.844;2023-07-30T09:31:54;22.90;64.60
35497;DHT22;21609;49.298;6.844;2023-07-30T09:34:20;22.90;64.40
35497;DHT22;21609;49.298;6.844;2023-07-30T09:36:46;22.90;65.80
35497;DHT22;21609;49.298;6.844;2023-07-30T09:39:30;22.90;65.40
35497;DHT22;21609;49.298;6.844;2023-07-30T09:41:59;22.90;64.60
35497;DHT22;21609;49.298;6.844;2023-07-30T09:44:25;22.90;64.10
35497;DHT22;21609;49.298;6.844;2023-07-30T09:46:50;22.90;63.00
35497;DHT22;21609;49.298;6.844;2023-07-30T09:49:16;22.90;65.40
35497;DHT22;21609;49.298;6.844;2023-07-30T09:51:42;22.90;65.70
35497;DHT22;21609;49.298;6.844;2023-07-30T09:54:08;22.90;66.30
35497;DHT22;21609;49.298;6.844;2023-07-30T09:56:37;22.90;65.60
35497;DHT22;21609;49.298;6.844;2023-07-30T09:59:07;22.90;65.50
35497;DHT22;21609;49.298;6.844;2023-07-30T10:01:33;22.90;63.80
35497;DHT22;21609;49.298;6.844;2023-07-30T10:03:59;22.90;64.20
35497;DHT22;21609;49.298;6.844;2023-07-30T10:06:27;22.90;64.10
35497;DHT22;21609;49.298;6.844;2023-07-30T10:08:54;22.90;65.20
35497;DHT22;21609;49.298;6.844;2023-07-30T10:11:22;22.90;65.40
35497;DHT22;21609;49.298;6.844;2023-07-30T10:13:48;22.90;63.50
35497;DHT22;21609;49.298;6.844;2023-07-30T10:16:13;22.90;65.10
35497;DHT22;21609;49.298;6.844;2023-07-30T10:18:40;22.90;65.30
35497;DHT22;21609;49.298;6.844;2023-07-30T10:21:08;22.90;63.50
35497;DHT22;21609;49.298;6.844;2023-07-30T10:23:34;23.00;63.70
35497;DHT22;21609;49.298;6.844;2023-07-30T10:26:03;23.00;64.50
35497;DHT22;21609;49.298;6.844;2023-07-30T10:28:33;23.00;65.90
35497;DHT22;21609;49.298;6.844;2023-07-30T10:31:00;22.90;65.50
35497;DHT22;21609;49.298;6.844;2023-07-30T10:33:43;23.00;63.70
35497;DHT22;21609;49.298;6.844;2023-07-30T10:36:09;22.90;63.70
35497;DHT22;21609;49.298;6.844;2023-07-30T10:38:35;22.90;64.30
35497;DHT22;21609;49.298;6.844;2023-07-30T10:41:05;22.90;63.10
35497;DHT22;21609;49.298;6.844;2023-07-30T10:43:34;23.00;64.40
35497;DHT22;21609;49.298;6.844;2023-07-30T10:46:00;22.90;64.80
35497;DHT22;21609;49.298;6.844;2023-07-30T10:48:29;23.00;64.00
35497;DHT22;21609;49.298;6.844;2023-07-30T10:50:56;23.00;64.00
35497;DHT22;21609;49.298;6.844;2023-07-30T10:53:21;23.00;64.90
35497;DHT22;21609;49.298;6.844;2023-07-30T10:55:46;23.00;63.60
35497;DHT22;21609;49.298;6.844;2023-07-30T10:58:13;23.00;63.50
35497;DHT22;21609;49.298;6.844;2023-07-30T11:00:39;23.00;62.90
35497;DHT22;21609;49.298;6.844;2023-07-30T11:03:04;23.00;63.50
35497;DHT22;21609;49.298;6.844;2023-07-30T11:05:30;23.10;64.00
35497;DHT22;21609;49.298;6.844;2023-07-30T11:07:55;23.00;63.80
35497;DHT22;21609;49.298;6.844;2023-07-30T11:10:21;23.10;63.60
35497;DHT22;21609;49.298;6.844;2023-07-30T11:12:50;23.00;64.30
35497;DHT22;21609;49.298;6.844;2023-07-30T11:15:16;23.00;63.60
35497;DHT22;21609;49.298;6.844;2023-07-30T11:17:42;23.00;64.00
35497;DHT22;21609;49.298;6.844;2023-07-30T11:20:07;23.00;63.60
35497;DHT22;21609;49.298;6.844;2023-07-30T11:22:33;23.00;63.50
35497;DHT22;21609;49.298;6.844;2023-07-30T11:24:59;23.10;62.90
35497;DHT22;21609;49.298;6.844;2023-07-30T11:27:27;23.10;63.40
35497;DHT22;21609;49.298;6.844;2023-07-30T11:29:58;23.10;62.70
35497;DHT22;21609;49.298;6.844;2023-07-30T11:32:24;23.10;62.70
35497;DHT22;21609;49.298;6.844;2023-07-30T11:34:54;23.10;62.90
35497;DHT22;21609;49.298;6.844;2023-07-30T11:37:20;23.10;62.60
35497;DHT22;21609;49.298;6.844;2023-07-30T11:39:46;23.10;63.50
35497;DHT22;21609;49.298;6.844;2023-07-30T11:42:11;23.10;63.60
35497;DHT22;21609;49.298;6.844;2023-07-30T11:44:37;23.10;62.80
35497;DHT22;21609;49.298;6.844;2023-07-30T11:47:03;23.10;62.60
35497;DHT22;21609;49.298;6.844;2023-07-30T11:49:29;23.10;62.10
35497;DHT22;21609;49.298;6.844;2023-07-30T11:52:07;23.10;62.30
35497;DHT22;21609;49.298;6.844;2023-07-30T11:54:33;23.20;62.20
35497;DHT22;21609;49.298;6.844;2023-07-30T11:56:59;23.20;62.40
35497;DHT22;21609;49.298;6.844;2023-07-30T11:59:24;23.20;62.10
35497;DHT22;21609;49.298;6.844;2023-07-30T12:01:50;23.20;61.90
35497;DHT22;21609;49.298;6.844;2023-07-30T12:04:15;23.20;61.50
35497;DHT22;21609;49.298;6.844;2023-07-30T12:06:42;23.20;62.30
35497;DHT22;21609;49.298;6.844;2023-07-30T12:11:49;23.20;62.10
35497;DHT22;21609;49.298;6.844;2023-07-30T12:14:15;23.20;62.00
35497;DHT22;21609;49.298;6.844;2023-07-30T12:16:40;23.20;61.70
35497;DHT22;21609;49.298;6.844;2023-07-30T12:19:06;23.20;61.30
35497;DHT22;21609;49.298;6.844;2023-07-30T12:21:32;23.20;60.00
35497;DHT22;21609;49.298;6.844;2023-07-30T12:23:57;23.20;61.90
35497;DHT22;21609;49.298;6.844;2023-07-30T12:26:23;23.20;60.70
35497;DHT22;21609;49.298;6.844;2023-07-30T12:28:48;23.20;60.20
35497;DHT22;21609;49.298;6.844;2023-07-30T12:31:14;23.20;60.50
35497;DHT22;21609;49.298;6.844;2023-07-30T12:33:39;23.20;60.30
35497;DHT22;21609;49.298;6.844;2023-07-30T12:36:05;23.30;60.30
35497;DHT22;21609;49.298;6.844;2023-07-30T12:38:30;23.20;60.20
35497;DHT22;21609;49.298;6.844;2023-07-30T12:40:56;23.30;59.30
35497;DHT22;21609;49.298;6.844;2023-07-30T12:43:21;23.30;61.30
35497;DHT22;21609;49.298;6.844;2023-07-30T12:45:47;23.30;61.50
35497;DHT22;21609;49.298;6.844;2023-07-30T12:48:13;23.30;60.40
35497;DHT22;21609;49.298;6.844;2023-07-30T12:50:38;23.30;60.40
35497;DHT22;21609;49.298;6.844;2023-07-30T12:53:04;23.30;60.30
35497;DHT22;21609;49.298;6.844;2023-07-30T12:55:29;23.30;60.30
35497;DHT22;21609;49.298;6.844;2023-07-30T12:57:55;23.30;60.10
35497;DHT22;21609;49.298;6.844;2023-07-30T13:00:20;23.30;60.20
35497;DHT22;21609;49.298;6.844;2023-07-30T13:02:46;23.30;59.80
35497;DHT22;21609;49.298;6.844;2023-07-30T13:05:11;23.30;60.00
35497;DHT22;21609;49.298;6.844;2023-07-30T13:07:39;23.30;60.00
35497;DHT22;21609;49.298;6.844;2023-07-30T13:10:05;23.30;59.90
35497;DHT22;21609;49.298;6.844;2023-07-30T13:12:31;23.30;59.80
35497;DHT22;21609;49.298;6.844;2023-07-30T13:14:56;23.30;60.00
35497;DHT22;21609;49.298;6.844;2023-07-30T13:17:22;23.30;60.60
35497;DHT22;21609;49.298;6.844;2023-07-30T13:19:47;23.30;59.80
35497;DHT22;21609;49.298;6.844;2023-07-30T13:22:12;23.30;60.30
35497;DHT22;21609;49.298;6.844;2023-07-30T13:24:38;23.30;60.80
35497;DHT22;21609;49.298;6.844;2023-07-30T13:27:04;23.30;59.60
35497;DHT22;21609;49.298;6.844;2023-07-30T13:29:30;23.30;59.60
35497;DHT22;21609;49.298;6.844;2023-07-30T13:31:56;23.30;60.50
35497;DHT22;21609;49.298;6.844;2023-07-30T13:34:21;23.30;59.90
35497;DHT22;21609;49.298;6.844;2023-07-30T13:36:47;23.30;59.90
35497;DHT22;21609;49.298;6.844;2023-07-30T13:39:12;23.30;59.80
35497;DHT22;21609;49.298;6.844;2023-07-30T13:41:38;23.30;59.10
35497;DHT22;21609;49.298;6.844;2023-07-30T13:44:03;23.30;59.40
35497;DHT22;21609;49.298;6.844;2023-07-30T13:46:29;23.30;59.40
35497;DHT22;21609;49.298;6.844;2023-07-30T13:48:54;23.30;59.90
35497;DHT22;21609;49.298;6.844;2023-07-30T13:51:19;23.30;60.80
35497;DHT22;21609;49.298;6.844;2023-07-30T13:53:45;23.30;60.00
35497;DHT22;21609;49.298;6.844;2023-07-30T13:56:10;23.30;58.40
35497;DHT22;21609;49.298;6.844;2023-07-30T13:58:36;23.30;59.60
35497;DHT22;21609;49.298;6.844;2023-07-30T14:01:02;23.40;60.10
35497;DHT22;21609;49.298;6.844;2023-07-30T14:03:28;23.40;59.40
35497;DHT22;21609;49.298;6.844;2023-07-30T14:05:53;23.40;59.60
35497;DHT22;21609;49.298;6.844;2023-07-30T14:08:19;23.40;59.70
35497;DHT22;21609;49.298;6.844;2023-07-30T14:10:44;23.40;59.90
35497;DHT22;21609;49.298;6.844;2023-07-30T14:13:10;23.40;59.90
35497;DHT22;21609;49.298;6.844;2023-07-30T14:15:35;23.40;60.40
35497;DHT22;21609;49.298;6.844;2023-07-30T14:18:00;23.40;60.20
35497;DHT22;21609;49.298;6.844;2023-07-30T14:20:26;23.40;60.20
35497;DHT22;21609;49.298;6.844;2023-07-30T14:22:52;23.40;60.30
35497;DHT22;21609;49.298;6.844;2023-07-30T14:25:19;23.50;59.60
35497;DHT22;21609;49.298;6.844;2023-07-30T14:27:45;23.50;58.40
35497;DHT22;21609;49.298;6.844;2023-07-30T14:30:10;23.50;59.00
35497;DHT22;21609;49.298;6.844;2023-07-30T14:32:36;23.50;59.30
35497;DHT22;21609;49.298;6.844;2023-07-30T14:35:01;23.50;58.80
35497;DHT22;21609;49.298;6.844;2023-07-30T14:37:27;23.50;59.10
35497;DHT22;21609;49.298;6.844;2023-07-30T14:39:53;23.50;58.90
35497;DHT22;21609;49.298;6.844;2023-07-30T14:42:18;23.50;58.80
35497;DHT22;21609;49.298;6.844;2023-07-30T14:44:44;23.50;58.90
35497;DHT22;21609;49.298;6.844;2023-07-30T14:47:09;23.50;58.90
35497;DHT22;21609;49.298;6.844;2023-07-30T14:49:35;23.50;59.00
35497;DHT22;21609;49.298;6.844;2023-07-30T14:52:02;23.50;58.40
35497;DHT22;21609;49.298;6.844;2023-07-30T14:54:28;23.50;59.20
35497;DHT22;21609;49.298;6.844;2023-07-30T14:56:53;23.60;58.30
35497;DHT22;21609;49.298;6.844;2023-07-30T14:59:20;23.60;58.70
35497;DHT22;21609;49.298;6.844;2023-07-30T15:01:46;23.60;59.60
35497;DHT22;21609;49.298;6.844;2023-07-30T15:04:11;23.60;58.40
35497;DHT22;21609;49.298;6.844;2023-07-30T15:06:36;23.50;58.90
35497;DHT22;21609;49.298;6.844;2023-07-30T15:09:02;23.60;58.70
35497;DHT22;21609;49.298;6.844;2023-07-30T15:11:27;23.60;59.20
35497;DHT22;21609;49.298;6.844;2023-07-30T15:13:53;23.60;58.70
35497;DHT22;21609;49.298;6.844;2023-07-30T15:16:18;23.60;58.40
35497;DHT22;21609;49.298;6.844;2023-07-30T15:18:44;23.60;58.70
35497;DHT22;21609;49.298;6.844;2023-07-30T15:21:11;23.60;57.70
35497;DHT22;21609;49.298;6.844;2023-07-30T15:23:36;23.60;59.00